createdAt,value
2023-05-10T02:55:48.743Z,5.90
2023-05-10T02:58:17.172Z,5.91
2023-05-10T03:00:44.996Z,5.93
2023-05-10T03:03:13.432Z,5.93
2023-05-10T03:05:41.355Z,5.95
2023-05-10T03:08:38.300Z,5.94
2023-05-10T03:12:10.243Z,5.91
2023-05-10T03:15:36.559Z,5.88
2023-05-10T03:18:11.013Z,5.87
2023-05-10T03:20:44.170Z,5.85
2023-05-10T03:23:25.272Z,5.83
2023-05-10T03:25:54.034Z,5.81
2023-05-10T03:28:23.052Z,5.79
2023-05-10T03:30:52.742Z,5.77
2023-05-10T03:33:22.760Z,5.76
2023-05-10T03:35:51.610Z,5.75
2023-05-10T03:38:19.469Z,5.74
2023-05-10T03:40:47.645Z,5.74
2023-05-10T03:43:17.833Z,5.76
2023-05-10T03:45:45.778Z,5.77
2023-05-10T03:48:14.908Z,5.79
2023-05-10T03:50:43.771Z,5.80
2023-05-10T03:53:11.866Z,5.82
2023-05-10T03:55:42.149Z,5.85
2023-05-10T03:58:13.430Z,5.87
2023-05-10T04:00:46.122Z,5.89
2023-05-10T04:03:15.266Z,5.91
2023-05-10T04:05:43.251Z,5.93
2023-05-10T04:08:11.551Z,5.93
2023-05-10T04:10:39.474Z,5.94
2023-05-10T04:13:07.439Z,5.96
2023-05-10T04:15:36.584Z,5.99
2023-05-10T04:18:06.516Z,6.03
2023-05-10T04:20:37.968Z,6.06
2023-05-10T04:23:05.878Z,6.11
2023-05-10T04:25:37.709Z,6.16
2023-05-10T04:28:07.818Z,6.21
2023-05-10T04:30:37.010Z,6.26
2023-05-10T04:33:05.196Z,6.32
2023-05-10T04:35:33.292Z,6.37
2023-05-10T04:38:01.180Z,6.43
2023-05-10T04:40:29.034Z,6.46
2023-05-10T04:42:56.983Z,6.43
2023-05-10T04:45:24.877Z,6.43
2023-05-10T04:47:52.844Z,6.41
2023-05-10T04:50:21.338Z,6.45
2023-05-10T04:52:51.310Z,6.46
2023-05-10T04:55:20.337Z,6.48
2023-05-10T04:57:50.856Z,6.49
2023-05-10T05:00:20.114Z,6.53
2023-05-10T05:02:49.596Z,6.60
2023-05-10T05:05:20.386Z,6.67
2023-05-10T05:07:51.940Z,6.75
2023-05-10T05:10:25.372Z,6.84
2023-05-10T05:12:54.187Z,6.94
2023-05-10T05:15:22.123Z,7.00
2023-05-10T05:17:50.258Z,7.10
2023-05-10T05:20:22.150Z,7.19
2023-05-10T05:22:52.454Z,7.28
2023-05-10T05:25:20.510Z,7.36
2023-05-10T05:27:51.022Z,7.47
2023-05-10T05:30:19.488Z,7.55
2023-05-10T05:32:48.215Z,7.65
2023-05-10T05:35:16.551Z,7.73
2023-05-10T05:37:44.828Z,7.82
2023-05-10T05:40:14.965Z,7.90
2023-05-10T05:42:42.943Z,7.98
2023-05-10T05:45:15.450Z,8.05
2023-05-10T05:47:46.149Z,8.11
2023-05-10T05:50:18.084Z,8.18
2023-05-10T05:52:48.626Z,8.23
2023-05-10T05:55:34.010Z,8.28
2023-05-10T05:58:58.082Z,8.37
2023-05-10T06:01:55.007Z,8.46
2023-05-10T06:04:28.708Z,8.54
2023-05-10T06:07:15.489Z,8.60
2023-05-10T06:20:25.090Z,8.89
2023-05-10T06:23:31.747Z,8.95
2023-05-10T06:26:47.483Z,9.01
2023-05-10T06:29:16.314Z,9.15
2023-05-10T06:31:44.127Z,9.61
2023-05-10T06:34:13.304Z,10.01
2023-05-10T06:36:43.736Z,10.33
2023-05-10T06:39:12.997Z,10.54
2023-05-10T06:41:41.509Z,10.67
2023-05-10T06:44:10.556Z,10.77
2023-05-10T06:46:38.517Z,10.87
2023-05-10T06:49:06.399Z,11.02
2023-05-10T06:51:34.885Z,11.27
2023-05-10T06:54:53.251Z,11.54
2023-05-10T06:58:05.735Z,11.63
2023-05-10T07:01:32.139Z,11.42
2023-05-10T07:08:28.856Z,11.22
2023-05-10T07:33:17.937Z,11.53
2023-05-10T07:46:31.888Z,11.53
2023-05-10T08:01:13.302Z,11.96
2023-05-10T08:06:09.859Z,12.15
2023-05-10T08:14:02.560Z,12.42
2023-05-10T08:17:27.422Z,12.50
2023-05-10T08:23:55.817Z,12.71
2023-05-10T08:27:14.597Z,12.84
2023-05-10T08:34:01.738Z,12.96
2023-05-10T09:01:31.956Z,14.52
2023-05-10T09:04:17.680Z,14.66
2023-05-10T09:07:12.597Z,14.78
2023-05-10T09:26:40.691Z,16.02
2023-05-10T09:30:32.736Z,16.27
2023-05-10T10:05:22.223Z,17.62
2023-05-10T10:09:13.856Z,17.74
2023-05-10T10:32:59.392Z,18.97
2023-05-10T10:38:55.844Z,19.57
2023-05-10T10:44:59.979Z,20.06
2023-05-10T10:48:07.873Z,20.25
2023-05-10T10:51:04.309Z,20.45
2023-05-10T10:54:13.117Z,20.55
2023-05-10T10:57:42.438Z,20.69
2023-05-10T11:04:02.430Z,20.75
2023-05-10T11:08:41.278Z,20.98
2023-05-10T11:43:31.878Z,22.46
2023-05-10T11:55:36.105Z,22.29
2023-05-10T11:59:11.789Z,22.38
2023-05-10T12:03:01.843Z,22.75
2023-05-10T12:28:23.908Z,24.88
2023-05-10T12:31:48.622Z,24.74
2023-05-10T12:38:44.411Z,25.41
2023-05-10T12:43:18.565Z,25.28
2023-05-10T13:06:47.675Z,26.58
2023-05-10T13:09:16.997Z,26.83
2023-05-10T13:11:52.045Z,26.94
2023-05-10T13:14:21.279Z,27.40
2023-05-10T13:16:48.408Z,27.52
2023-05-10T13:19:17.947Z,27.56
2023-05-10T13:21:44.997Z,27.94
2023-05-10T13:24:14.089Z,27.56
2023-05-10T13:26:55.091Z,27.95
2023-05-10T13:29:49.100Z,28.45
2023-05-10T13:32:17.883Z,28.72
2023-05-10T13:34:46.015Z,29.10
2023-05-10T13:37:13.288Z,29.45
2023-05-10T13:39:44.068Z,29.61
2023-05-10T13:42:24.420Z,29.44
2023-05-10T13:45:31.056Z,29.41
2023-05-10T13:47:58.341Z,29.30
2023-05-10T13:50:35.546Z,28.99
2023-05-10T13:53:09.175Z,29.09
2023-05-10T13:55:39.145Z,29.40
2023-05-10T13:58:07.370Z,29.87
2023-05-10T14:00:35.849Z,30.11
2023-05-10T14:03:06.975Z,30.08
2023-05-10T14:05:34.170Z,29.87
2023-05-10T14:08:01.591Z,29.47
2023-05-10T14:10:28.636Z,29.07
2023-05-10T14:12:56.064Z,28.52
2023-05-10T14:15:23.002Z,28.51
2023-05-10T14:17:49.704Z,28.32
2023-05-10T14:20:16.582Z,28.19
2023-05-10T14:22:43.266Z,28.31
2023-05-10T14:25:13.010Z,28.36
2023-05-10T14:27:39.842Z,28.44
2023-05-10T14:30:08.923Z,28.66
2023-05-10T14:32:38.063Z,28.91
2023-05-10T14:35:06.264Z,29.16
2023-05-10T14:37:34.071Z,28.97
2023-05-10T14:40:00.889Z,29.09
2023-05-10T14:42:28.684Z,29.02
2023-05-10T14:44:56.667Z,29.18
2023-05-10T14:47:23.610Z,29.56
2023-05-10T14:49:50.409Z,29.87
2023-05-10T14:52:17.660Z,30.21
2023-05-10T14:54:44.163Z,30.59
2023-05-10T14:57:10.610Z,30.81
2023-05-10T14:59:37.069Z,30.57
2023-05-10T15:02:37.233Z,30.63
2023-05-10T15:05:24.235Z,30.75
2023-05-10T15:07:51.546Z,30.81
2023-05-10T15:10:18.615Z,30.31
2023-05-10T15:12:45.138Z,30.15
2023-05-10T15:15:11.644Z,30.38
2023-05-10T15:17:38.284Z,30.33
2023-05-10T15:20:05.854Z,30.77
2023-05-10T15:22:34.335Z,31.00
2023-05-10T15:25:01.924Z,31.20
2023-05-10T15:27:28.395Z,31.53
2023-05-10T15:29:55.593Z,31.95
2023-05-10T15:32:22.438Z,32.20
2023-05-10T15:34:49.675Z,32.25
2023-05-10T15:37:16.171Z,32.42
2023-05-10T15:39:42.715Z,32.20
2023-05-10T15:42:09.189Z,32.07
2023-05-10T15:44:38.668Z,32.05
2023-05-10T15:47:06.782Z,31.44
2023-05-10T15:49:34.296Z,31.06
2023-05-10T15:52:17.076Z,31.07
2023-05-10T15:55:12.321Z,30.91
2023-05-10T15:57:42.862Z,30.70
2023-05-10T16:00:12.491Z,30.70
2023-05-10T16:02:41.913Z,30.70
2023-05-10T16:05:13.896Z,30.63
2023-05-10T16:07:44.940Z,30.44
2023-05-10T16:10:12.003Z,30.41
2023-05-10T16:12:58.921Z,30.38
2023-05-10T16:15:27.600Z,30.33
2023-05-10T16:17:54.660Z,30.06
2023-05-10T16:20:27.694Z,30.19
2023-05-10T16:23:14.987Z,29.86
2023-05-10T16:25:42.310Z,29.64
2023-05-10T16:47:09.621Z,27.12
2023-05-10T16:50:17.932Z,26.09
2023-05-10T16:53:17.696Z,26.14
2023-05-10T16:56:25.971Z,26.29
2023-05-10T16:59:54.536Z,26.32
2023-05-10T17:03:39.130Z,26.28
2023-05-10T17:11:52.617Z,25.42
2023-05-10T17:14:53.215Z,24.98
2023-05-10T17:22:11.816Z,22.84
2023-05-10T17:29:44.580Z,20.35
2023-05-10T17:33:04.711Z,19.51
2023-05-10T17:36:49.763Z,18.76
2023-05-10T17:43:46.603Z,17.36
2023-05-10T17:47:18.635Z,16.75
2023-05-10T17:50:57.547Z,16.28
2023-05-10T17:54:28.699Z,15.76
2023-05-10T17:58:14.579Z,15.31
2023-05-10T18:01:47.619Z,14.94
2023-05-10T18:05:00.051Z,14.63
2023-05-10T18:12:18.564Z,14.01
2023-05-10T18:15:42.689Z,13.75
2023-05-10T18:28:45.526Z,12.89
2023-05-10T18:36:00.553Z,12.53
2023-05-10T18:39:19.827Z,12.39
2023-05-10T18:42:33.537Z,12.25
2023-05-10T18:45:49.856Z,12.13
2023-05-10T18:49:27.773Z,11.98
2023-05-10T18:52:56.700Z,11.86
2023-05-10T18:56:33.612Z,11.76
2023-05-10T19:00:14.292Z,11.64
2023-05-10T19:03:50.582Z,11.52
2023-05-10T19:07:28.525Z,11.42
2023-05-10T19:11:13.246Z,11.32
2023-05-10T19:14:40.497Z,11.22
2023-05-10T19:18:10.636Z,11.15
2023-05-10T19:21:10.003Z,11.07
2023-05-10T19:24:48.566Z,11.00
2023-05-10T19:28:31.870Z,10.92
2023-05-10T19:32:43.638Z,10.83
2023-05-10T19:35:51.514Z,10.77
2023-05-10T19:39:12.614Z,10.72
2023-05-10T19:42:58.982Z,10.70
2023-05-10T19:46:12.654Z,10.67
2023-05-10T19:49:25.394Z,10.64
2023-05-10T19:52:34.056Z,10.58
2023-05-10T19:55:21.844Z,10.55
2023-05-10T19:58:32.991Z,10.52
2023-05-10T20:01:41.414Z,10.49
2023-05-10T20:04:49.370Z,10.43
2023-05-10T20:07:59.216Z,10.38
2023-05-10T20:11:07.212Z,10.35
2023-05-10T20:13:56.699Z,10.31
2023-05-10T20:16:38.078Z,10.27
2023-05-10T20:19:46.871Z,10.21
2023-05-10T20:22:44.451Z,10.15
2023-05-10T20:25:34.086Z,10.14
2023-05-10T20:28:28.859Z,10.12
2023-05-10T20:31:16.638Z,10.08
2023-05-10T20:34:24.383Z,10.03
2023-05-10T20:37:29.820Z,9.99
2023-05-10T20:40:38.796Z,9.93
2023-05-10T20:43:46.047Z,9.87
2023-05-10T20:47:12.739Z,9.81
2023-05-10T20:50:15.561Z,9.76
2023-05-10T20:53:43.092Z,9.72
2023-05-10T20:57:31.606Z,9.65
2023-05-10T21:00:26.471Z,9.60
2023-05-10T21:03:43.232Z,9.56
2023-05-10T21:06:40.785Z,9.52
2023-05-10T21:09:51.161Z,9.47
2023-05-10T21:13:25.188Z,9.44
2023-05-10T21:16:48.391Z,9.40
2023-05-10T21:20:27.927Z,9.39
2023-05-10T21:23:44.330Z,9.36
2023-05-10T21:27:24.512Z,9.30
2023-05-10T21:29:55.535Z,9.22
2023-05-10T21:32:36.867Z,9.17
2023-05-10T21:35:08.916Z,9.10
2023-05-10T21:37:35.382Z,9.05
2023-05-10T21:40:03.963Z,9.00
2023-05-10T21:42:31.279Z,8.97
2023-05-10T21:44:57.801Z,8.94
2023-05-10T21:47:24.376Z,8.91
2023-05-10T21:49:51.182Z,8.88
2023-05-10T21:52:17.776Z,8.84
2023-05-10T21:54:44.322Z,8.82
2023-05-10T21:57:11.273Z,8.83
2023-05-10T21:59:38.234Z,8.83
2023-05-10T22:02:04.805Z,8.80
2023-05-10T22:04:31.425Z,8.76
2023-05-10T22:06:57.954Z,8.72
2023-05-10T22:09:24.814Z,8.67
2023-05-10T22:11:51.330Z,8.61
2023-05-10T22:14:17.833Z,8.56
2023-05-10T22:16:44.396Z,8.51
2023-05-10T22:19:11.306Z,8.48
2023-05-10T22:21:37.828Z,8.41
2023-05-10T22:24:04.572Z,8.36
2023-05-10T22:26:31.048Z,8.31
2023-05-10T22:28:57.521Z,8.28
2023-05-10T22:31:24.056Z,8.24
2023-05-10T22:33:50.461Z,8.20
2023-05-10T22:36:16.937Z,8.17
2023-05-10T22:38:43.391Z,8.15
2023-05-10T22:41:09.867Z,8.12
2023-05-10T22:43:36.300Z,8.09
2023-05-10T22:46:02.993Z,8.07
2023-05-10T22:48:29.552Z,8.05
2023-05-10T22:51:36.892Z,8.02
2023-05-10T22:54:44.099Z,7.97
2023-05-10T22:58:30.957Z,7.92
2023-05-10T23:01:58.508Z,7.84
2023-05-10T23:05:09.773Z,7.77
2023-05-10T23:08:50.969Z,7.73
2023-05-10T23:12:16.229Z,7.66
2023-05-10T23:16:11.856Z,7.60
2023-05-10T23:19:16.953Z,7.55
2023-05-10T23:22:50.679Z,7.52
2023-05-10T23:26:16.605Z,7.47
2023-05-10T23:29:49.577Z,7.42
2023-05-10T23:32:57.637Z,7.37
2023-05-10T23:36:54.556Z,7.30
2023-05-10T23:39:36.686Z,7.23
2023-05-10T23:42:35.024Z,7.20
2023-05-10T23:46:20.695Z,7.17
2023-05-10T23:49:44.607Z,7.12
2023-05-10T23:53:26.629Z,7.08
2023-05-10T23:57:23.556Z,6.97
